createdAt,value
2023-06-06T00:01:21.453Z,15.81
2023-06-06T00:03:50.505Z,15.73
2023-06-06T00:06:22.041Z,15.82
2023-06-06T00:08:53.996Z,15.63
2023-06-06T00:11:21.872Z,15.69
2023-06-06T00:13:51.653Z,15.61
2023-06-06T00:16:18.682Z,15.40
2023-06-06T00:18:54.137Z,15.38
2023-06-06T00:21:22.501Z,15.56
2023-06-06T00:23:50.306Z,15.28
2023-06-06T00:26:17.114Z,15.02
2023-06-06T00:28:46.545Z,15.04
2023-06-06T00:31:14.637Z,15.20
2023-06-06T00:33:41.370Z,15.13
2023-06-06T00:36:08.467Z,15.20
2023-06-06T00:38:35.217Z,15.24
2023-06-06T00:41:01.953Z,15.19
2023-06-06T00:43:28.690Z,15.13
2023-06-06T00:45:56.465Z,15.04
2023-06-06T00:48:24.254Z,14.90
2023-06-06T00:50:51.561Z,14.94
2023-06-06T00:53:18.576Z,15.06
2023-06-06T00:55:46.397Z,14.99
2023-06-06T00:58:13.972Z,14.99
2023-06-06T01:00:41.581Z,14.85
2023-06-06T01:03:15.603Z,14.94
2023-06-06T01:05:43.557Z,14.68
2023-06-06T01:08:13.210Z,14.70
2023-06-06T01:10:41.609Z,14.67
2023-06-06T01:13:29.603Z,14.76
2023-06-06T01:16:01.144Z,14.87
2023-06-06T01:18:28.883Z,14.80
2023-06-06T01:20:56.295Z,14.55
2023-06-06T01:23:24.977Z,14.47
2023-06-06T01:25:51.878Z,14.45
2023-06-06T01:28:18.974Z,14.47
2023-06-06T01:30:47.164Z,14.33
2023-06-06T01:33:39.960Z,14.33
2023-06-06T01:36:22.155Z,14.37
2023-06-06T01:38:54.815Z,14.44
2023-06-06T01:41:23.699Z,14.52
2023-06-06T01:43:55.414Z,14.37
2023-06-06T01:46:25.583Z,14.17
2023-06-06T01:48:53.979Z,14.11
2023-06-06T01:51:21.172Z,14.25
2023-06-06T01:53:48.142Z,14.10
2023-06-06T01:56:15.170Z,14.31
2023-06-06T01:58:43.598Z,14.45
2023-06-06T02:01:10.876Z,14.48
2023-06-06T02:03:38.242Z,14.44
2023-06-06T02:06:06.271Z,14.43
2023-06-06T02:08:33.275Z,14.42
2023-06-06T02:11:00.153Z,14.54
2023-06-06T02:13:27.214Z,14.52
2023-06-06T02:15:53.979Z,14.61
2023-06-06T02:18:21.154Z,14.60
2023-06-06T02:20:48.089Z,14.69
2023-06-06T02:23:15.347Z,14.56
2023-06-06T02:25:42.034Z,14.46
2023-06-06T02:28:09.478Z,14.57
2023-06-06T02:30:36.361Z,14.41
2023-06-06T02:33:03.720Z,14.32
2023-06-06T02:35:30.611Z,14.33
2023-06-06T02:37:57.442Z,14.23
2023-06-06T02:40:24.301Z,14.35
2023-06-06T02:42:51.097Z,14.31
2023-06-06T02:45:17.984Z,14.21
2023-06-06T02:47:46.156Z,14.12
2023-06-06T02:50:12.928Z,14.06
2023-06-06T02:52:42.271Z,13.87
2023-06-06T02:55:09.692Z,13.94
2023-06-06T02:57:37.604Z,14.02
2023-06-06T03:00:09.904Z,13.99
2023-06-06T03:02:37.050Z,13.99
2023-06-06T03:05:04.705Z,14.06
2023-06-06T03:07:31.927Z,14.08
2023-06-06T03:09:58.874Z,13.99
2023-06-06T03:12:32.079Z,13.97
2023-06-06T03:14:59.750Z,13.98
2023-06-06T03:17:33.726Z,14.06
2023-06-06T03:20:00.698Z,14.05
2023-06-06T03:22:29.310Z,13.98
2023-06-06T03:24:57.328Z,13.98
2023-06-06T03:27:24.827Z,13.93
2023-06-06T03:29:54.198Z,13.79
2023-06-06T03:32:24.543Z,13.77
2023-06-06T03:34:52.774Z,13.70
2023-06-06T03:37:19.572Z,13.72
2023-06-06T03:39:46.890Z,13.70
2023-06-06T03:42:14.453Z,13.54
2023-06-06T03:44:43.703Z,13.66
2023-06-06T03:47:11.868Z,13.66
2023-06-06T03:49:38.715Z,13.77
2023-06-06T03:52:06.908Z,13.83
2023-06-06T03:54:37.787Z,13.87
2023-06-06T03:57:09.800Z,13.77
2023-06-06T03:59:36.682Z,13.82
2023-06-06T04:02:04.202Z,13.78
2023-06-06T04:04:32.190Z,13.75
2023-06-06T04:06:59.780Z,13.67
2023-06-06T04:09:28.948Z,13.60
2023-06-06T04:11:55.855Z,13.65
2023-06-06T04:14:24.710Z,13.75
2023-06-06T04:16:51.891Z,13.78
2023-06-06T04:19:19.571Z,13.82
2023-06-06T04:21:49.411Z,13.81
2023-06-06T04:24:16.307Z,13.96
2023-06-06T04:26:43.210Z,13.98
2023-06-06T04:29:14.389Z,14.01
2023-06-06T04:31:42.593Z,14.10
2023-06-06T04:34:13.693Z,14.29
2023-06-06T04:36:41.305Z,14.27
2023-06-06T04:39:10.439Z,14.12
2023-06-06T04:44:08.209Z,14.17
2023-06-06T04:46:35.102Z,14.11
2023-06-06T04:49:02.620Z,14.10
2023-06-06T04:51:31.131Z,14.03
2023-06-06T04:53:59.975Z,14.11
2023-06-06T04:56:29.984Z,14.14
2023-06-06T04:59:07.849Z,14.17
2023-06-06T05:01:38.308Z,14.02
2023-06-06T05:04:06.280Z,13.82
2023-06-06T05:06:35.698Z,13.96
2023-06-06T05:09:05.428Z,14.07
2023-06-06T05:11:32.201Z,13.94
2023-06-06T05:13:58.966Z,13.77
2023-06-06T05:16:26.356Z,14.01
2023-06-06T05:18:53.223Z,13.97
2023-06-06T05:21:20.897Z,14.27
2023-06-06T05:23:47.987Z,14.50
2023-06-06T05:26:14.729Z,14.55
2023-06-06T05:28:41.527Z,14.69
2023-06-06T05:31:09.207Z,14.55
2023-06-06T05:33:41.867Z,14.26
2023-06-06T05:36:08.803Z,14.59
2023-06-06T05:38:35.453Z,14.92
2023-06-06T05:41:02.130Z,14.76
2023-06-06T05:43:31.780Z,14.17
2023-06-06T05:45:59.011Z,14.73
2023-06-06T05:48:25.851Z,14.82
2023-06-06T05:50:52.769Z,14.86
2023-06-06T05:53:19.559Z,15.08
2023-06-06T05:55:46.304Z,15.11
2023-06-06T05:58:13.019Z,15.36
2023-06-06T06:00:39.791Z,15.43
2023-06-06T06:03:09.103Z,15.43
2023-06-06T06:05:36.507Z,15.52
2023-06-06T06:08:04.251Z,15.64
2023-06-06T06:10:38.130Z,15.40
2023-06-06T06:13:06.586Z,15.57
2023-06-06T06:15:35.645Z,15.80
2023-06-06T06:18:04.223Z,15.67
2023-06-06T06:20:31.003Z,15.69
2023-06-06T06:22:57.735Z,16.03
2023-06-06T06:25:24.511Z,16.31
2023-06-06T06:27:52.140Z,16.26
2023-06-06T06:30:19.827Z,16.34
2023-06-06T06:32:47.240Z,16.10
2023-06-06T06:35:16.662Z,16.09
2023-06-06T06:37:50.069Z,16.18
2023-06-06T06:40:23.143Z,16.53
2023-06-06T06:42:52.998Z,16.50
2023-06-06T06:45:29.680Z,16.51
2023-06-06T06:47:56.619Z,16.51
2023-06-06T06:50:23.365Z,16.63
2023-06-06T06:52:50.296Z,16.68
2023-06-06T06:55:18.008Z,16.68
2023-06-06T06:57:46.159Z,16.88
2023-06-06T07:00:14.954Z,16.90
2023-06-06T07:02:45.894Z,17.11
2023-06-06T07:05:13.521Z,17.00
2023-06-06T07:07:45.223Z,16.97
2023-06-06T07:10:15.347Z,17.22
2023-06-06T07:12:42.884Z,17.17
2023-06-06T07:15:10.285Z,17.51
2023-06-06T07:17:37.011Z,17.57
2023-06-06T07:20:06.357Z,17.64
2023-06-06T07:22:37.257Z,17.47
2023-06-06T07:25:07.418Z,17.79
2023-06-06T07:27:36.388Z,18.01
2023-06-06T07:30:04.870Z,17.91
2023-06-06T07:32:32.252Z,18.14
2023-06-06T07:34:59.075Z,18.27
2023-06-06T07:37:25.703Z,17.94
2023-06-06T07:39:52.785Z,18.04
2023-06-06T07:42:21.577Z,18.03
2023-06-06T07:44:49.362Z,18.08
2023-06-06T07:47:16.313Z,18.26
2023-06-06T07:49:44.449Z,18.41
2023-06-06T07:52:12.286Z,18.42
2023-06-06T07:54:39.237Z,18.47
2023-06-06T07:57:09.102Z,18.40
2023-06-06T07:59:35.942Z,18.15
2023-06-06T08:02:03.034Z,18.30
2023-06-06T08:04:30.170Z,18.64
2023-06-06T08:06:57.186Z,18.76
2023-06-06T08:09:23.908Z,18.93
2023-06-06T08:11:50.924Z,18.73
2023-06-06T08:14:17.687Z,18.93
2023-06-06T08:16:44.508Z,19.10
2023-06-06T08:19:11.284Z,19.14
2023-06-06T08:21:38.338Z,19.18
2023-06-06T08:24:05.256Z,19.15
2023-06-06T08:26:32.611Z,19.30
2023-06-06T08:28:59.619Z,19.60
2023-06-06T08:31:26.590Z,19.64
2023-06-06T08:33:53.615Z,19.55
2023-06-06T08:36:20.445Z,19.72
2023-06-06T08:38:47.153Z,19.78
2023-06-06T08:41:17.948Z,19.92
2023-06-06T08:43:47.730Z,20.08
2023-06-06T08:46:16.476Z,20.05
2023-06-06T08:48:44.815Z,20.46
2023-06-06T08:51:13.759Z,20.60
2023-06-06T08:53:43.335Z,20.92
2023-06-06T08:56:12.800Z,20.70
2023-06-06T08:58:41.790Z,20.48
2023-06-06T09:01:12.861Z,20.53
2023-06-06T09:03:44.749Z,20.52
2023-06-06T09:06:13.190Z,20.63
2023-06-06T09:08:41.100Z,20.56
2023-06-06T09:11:07.901Z,20.51
2023-06-06T09:13:34.610Z,20.82
2023-06-06T09:16:04.687Z,20.98
2023-06-06T09:18:33.364Z,20.97
2023-06-06T09:21:00.203Z,21.26
2023-06-06T09:23:31.571Z,21.27
2023-06-06T09:25:59.089Z,21.73
2023-06-06T09:28:40.056Z,21.69
2023-06-06T09:31:38.428Z,21.81
2023-06-06T09:34:09.781Z,22.23
2023-06-06T09:36:41.501Z,21.88
2023-06-06T09:39:14.310Z,21.83
2023-06-06T09:41:41.967Z,21.92
2023-06-06T09:44:21.796Z,22.14
2023-06-06T09:46:58.480Z,22.43
2023-06-06T09:49:25.387Z,22.31
2023-06-06T09:51:55.297Z,22.71
2023-06-06T09:54:24.721Z,22.72
2023-06-06T09:56:53.301Z,22.45
2023-06-06T09:59:22.396Z,22.75
2023-06-06T10:01:54.949Z,22.75
2023-06-06T10:04:22.329Z,22.83
2023-06-06T10:06:50.416Z,22.95
2023-06-06T10:09:17.738Z,22.62
2023-06-06T10:11:44.894Z,22.89
2023-06-06T10:14:12.162Z,22.74
2023-06-06T10:16:40.264Z,23.25
2023-06-06T10:19:09.417Z,23.51
2023-06-06T10:21:37.854Z,23.66
2023-06-06T10:24:05.218Z,23.89
2023-06-06T10:27:01.661Z,23.79
2023-06-06T10:29:49.966Z,23.75
2023-06-06T10:32:26.310Z,24.13
2023-06-06T10:34:56.297Z,23.76
2023-06-06T10:37:23.383Z,23.53
2023-06-06T10:40:01.392Z,23.49
2023-06-06T10:42:41.425Z,23.63
2023-06-06T10:45:08.710Z,23.28
2023-06-06T10:47:39.905Z,23.23
2023-06-06T10:50:12.761Z,23.57
2023-06-06T10:53:00.804Z,23.27
2023-06-06T10:55:27.861Z,23.50
2023-06-06T10:58:06.745Z,23.63
2023-06-06T11:00:40.853Z,23.49
2023-06-06T11:03:09.638Z,23.69
2023-06-06T11:06:01.163Z,24.00
2023-06-06T11:08:38.065Z,23.91
2023-06-06T11:11:16.962Z,23.73
2023-06-06T11:14:09.911Z,23.87
2023-06-06T11:16:40.041Z,24.09
2023-06-06T11:19:10.086Z,24.17
2023-06-06T11:21:37.970Z,23.75
2023-06-06T11:24:10.670Z,23.73
2023-06-06T11:26:40.230Z,23.46
2023-06-06T11:29:10.746Z,23.69
2023-06-06T11:31:39.608Z,23.70
2023-06-06T11:34:11.825Z,23.43
2023-06-06T11:36:43.810Z,23.57
2023-06-06T11:39:13.320Z,23.98
2023-06-06T11:41:45.501Z,24.37
2023-06-06T11:44:13.268Z,24.48
2023-06-06T11:46:46.717Z,24.63
2023-06-06T11:49:13.503Z,24.42
2023-06-06T11:51:40.308Z,24.40
2023-06-06T11:54:20.727Z,24.43
2023-06-06T11:56:53.411Z,24.52
2023-06-06T11:59:21.524Z,24.64
2023-06-06T12:01:54.101Z,24.45
2023-06-06T12:04:22.290Z,24.73
2023-06-06T12:06:51.821Z,25.11
2023-06-06T12:09:19.728Z,24.93
2023-06-06T12:11:56.439Z,24.67
2023-06-06T12:14:25.279Z,24.90
2023-06-06T12:16:53.468Z,24.99
2023-06-06T12:19:20.984Z,25.03
2023-06-06T12:21:49.966Z,25.04
2023-06-06T12:24:21.243Z,24.92
2023-06-06T12:26:57.274Z,25.04
2023-06-06T12:29:28.035Z,25.29
2023-06-06T12:32:17.474Z,25.00
2023-06-06T12:34:51.648Z,24.81
2023-06-06T12:37:19.105Z,24.86
2023-06-06T12:39:47.278Z,24.76
2023-06-06T12:42:19.514Z,24.72
2023-06-06T12:44:48.209Z,24.81
2023-06-06T12:47:16.517Z,24.96
2023-06-06T12:49:44.047Z,24.88
2023-06-06T12:52:12.786Z,25.20
2023-06-06T12:54:42.913Z,25.40
2023-06-06T12:57:11.385Z,25.33
2023-06-06T12:59:43.912Z,25.32
2023-06-06T13:02:12.041Z,24.95
2023-06-06T13:04:40.908Z,25.01
2023-06-06T13:07:14.449Z,25.03
2023-06-06T13:09:41.722Z,25.14
2023-06-06T13:12:10.231Z,25.01
2023-06-06T13:14:38.633Z,24.83
2023-06-06T13:17:12.985Z,24.78
2023-06-06T13:19:41.288Z,24.83
2023-06-06T13:22:08.602Z,25.11
2023-06-06T13:24:35.632Z,25.22
2023-06-06T13:27:02.641Z,25.26
2023-06-06T13:29:29.504Z,25.17
2023-06-06T13:31:56.531Z,25.44
2023-06-06T13:34:23.600Z,25.29
2023-06-06T13:36:50.371Z,25.42
2023-06-06T13:39:17.139Z,25.51
2023-06-06T13:41:44.226Z,25.43
2023-06-06T13:44:17.935Z,25.36
2023-06-06T13:46:59.608Z,25.39
2023-06-06T13:49:27.985Z,25.27
2023-06-06T13:51:54.965Z,25.71
2023-06-06T13:54:22.049Z,25.94
2023-06-06T13:56:53.137Z,25.86
2023-06-06T13:59:21.362Z,25.07
2023-06-06T14:01:50.227Z,25.19
2023-06-06T14:04:17.415Z,25.32
2023-06-06T14:06:44.665Z,25.41
2023-06-06T14:09:15.525Z,25.30
2023-06-06T14:11:45.566Z,25.19
2023-06-06T14:14:13.795Z,25.32
2023-06-06T14:16:40.754Z,24.98
2023-06-06T14:19:15.224Z,25.17
2023-06-06T14:21:42.878Z,25.16
2023-06-06T14:24:10.973Z,25.23
2023-06-06T14:26:37.986Z,25.33
2023-06-06T14:29:04.776Z,25.17
2023-06-06T14:31:33.224Z,25.04
2023-06-06T14:33:59.985Z,25.21
2023-06-06T14:36:26.957Z,25.44
2023-06-06T14:38:53.695Z,25.24
2023-06-06T14:41:20.567Z,25.20
2023-06-06T14:43:48.285Z,25.51
2023-06-06T14:46:15.884Z,25.30
2023-06-06T14:48:46.800Z,25.34
2023-06-06T14:51:14.075Z,24.95
2023-06-06T14:53:40.768Z,24.93
2023-06-06T14:56:09.976Z,25.20
2023-06-06T14:58:36.627Z,25.22
2023-06-06T15:01:03.891Z,25.22
2023-06-06T15:03:31.067Z,25.21
2023-06-06T15:05:58.076Z,25.14
2023-06-06T15:08:24.829Z,25.18
2023-06-06T15:10:51.614Z,25.20
2023-06-06T15:13:19.423Z,25.22
2023-06-06T15:15:46.258Z,25.28
2023-06-06T15:18:13.188Z,25.25
2023-06-06T15:20:39.951Z,25.00
2023-06-06T15:23:08.339Z,24.98
2023-06-06T15:25:35.344Z,24.94
2023-06-06T15:28:02.458Z,24.83
2023-06-06T15:30:29.207Z,24.89
2023-06-06T15:32:56.078Z,24.73
2023-06-06T15:35:22.967Z,24.75
2023-06-06T15:37:49.758Z,24.80
2023-06-06T15:40:17.116Z,24.66
2023-06-06T15:42:43.899Z,24.74
2023-06-06T15:45:11.038Z,24.84
2023-06-06T15:47:38.074Z,24.78
2023-06-06T15:50:05.629Z,24.68
2023-06-06T15:52:32.358Z,24.49
2023-06-06T15:54:59.529Z,24.60
2023-06-06T15:57:26.540Z,24.69
2023-06-06T15:59:58.297Z,24.83
2023-06-06T16:02:25.058Z,24.88
2023-06-06T16:04:51.778Z,24.86
2023-06-06T16:07:18.526Z,24.72
2023-06-06T16:09:45.368Z,24.70
2023-06-06T16:12:12.273Z,24.39
2023-06-06T16:14:39.064Z,24.51
2023-06-06T16:17:09.065Z,24.70
2023-06-06T16:19:35.874Z,24.69
2023-06-06T16:22:02.721Z,24.66
2023-06-06T16:24:29.433Z,24.80
2023-06-06T16:26:56.163Z,24.66
2023-06-06T16:29:23.124Z,24.66
2023-06-06T16:31:50.031Z,24.79
2023-06-06T16:34:16.913Z,24.80
2023-06-06T16:36:45.028Z,24.59
2023-06-06T16:39:13.185Z,24.69
2023-06-06T16:41:40.820Z,24.80
2023-06-06T16:44:12.103Z,24.69
2023-06-06T16:46:40.483Z,24.78
2023-06-06T16:49:07.516Z,24.89
2023-06-06T16:51:34.234Z,24.87
2023-06-06T16:54:01.913Z,24.68
2023-06-06T16:56:28.788Z,24.42
2023-06-06T16:58:55.653Z,24.46
2023-06-06T17:01:22.717Z,24.43
2023-06-06T17:03:50.134Z,24.35
2023-06-06T17:06:17.374Z,24.26
2023-06-06T17:08:44.355Z,24.26
2023-06-06T17:11:12.421Z,24.33
2023-06-06T17:13:39.140Z,24.41
2023-06-06T17:16:06.008Z,24.37
2023-06-06T17:18:32.788Z,24.39
2023-06-06T17:21:01.243Z,24.51
2023-06-06T17:23:28.050Z,24.58
2023-06-06T17:25:54.825Z,24.55
2023-06-06T17:28:21.773Z,24.31
2023-06-06T17:30:51.238Z,24.24
2023-06-06T17:33:18.432Z,24.28
2023-06-06T17:35:45.212Z,24.32
2023-06-06T17:38:12.260Z,24.24
2023-06-06T17:40:38.977Z,24.40
2023-06-06T17:43:05.933Z,24.37
2023-06-06T17:45:32.656Z,24.35
2023-06-06T17:47:59.587Z,24.36
2023-06-06T17:50:28.865Z,24.32
2023-06-06T17:52:56.956Z,24.31
2023-06-06T17:55:23.996Z,24.32
2023-06-06T17:57:50.776Z,24.32
2023-06-06T18:00:18.372Z,24.25
2023-06-06T18:02:45.623Z,24.19
2023-06-06T18:05:27.887Z,24.15
2023-06-06T18:07:59.382Z,23.99
2023-06-06T18:10:27.165Z,23.97
2023-06-06T18:12:56.065Z,23.81
2023-06-06T18:15:23.564Z,23.80
2023-06-06T18:17:51.999Z,23.76
2023-06-06T18:20:18.882Z,23.76
2023-06-06T18:22:45.687Z,23.79
2023-06-06T18:25:13.494Z,23.78
2023-06-06T18:27:40.483Z,23.83
2023-06-06T18:30:15.071Z,23.79
2023-06-06T18:32:42.392Z,23.74
2023-06-06T18:35:13.156Z,23.71
2023-06-06T18:37:46.562Z,23.70
2023-06-06T18:40:20.426Z,23.63
2023-06-06T18:42:51.233Z,23.62
2023-06-06T18:45:18.284Z,23.58
2023-06-06T18:47:46.020Z,23.52
2023-06-06T18:50:15.012Z,23.45
2023-06-06T18:52:41.863Z,23.37
2023-06-06T18:55:09.346Z,23.27
2023-06-06T18:57:36.175Z,23.18
2023-06-06T19:00:06.515Z,23.12
2023-06-06T19:02:51.841Z,23.07
2023-06-06T19:05:29.789Z,22.72
2023-06-06T19:08:15.917Z,22.37
2023-06-06T19:11:04.363Z,22.08
2023-06-06T19:13:43.780Z,22.05
2023-06-06T19:16:27.467Z,21.95
2023-06-06T19:19:04.399Z,22.01
2023-06-06T19:21:40.886Z,21.95
2023-06-06T19:24:14.536Z,22.06
2023-06-06T19:26:51.161Z,21.98
2023-06-06T19:29:26.951Z,21.91
2023-06-06T19:32:05.536Z,21.72
2023-06-06T19:34:35.534Z,21.90
2023-06-06T19:37:02.298Z,21.76
2023-06-06T19:39:28.989Z,21.58
2023-06-06T19:41:55.866Z,21.57
2023-06-06T19:44:22.809Z,21.64
2023-06-06T19:46:49.603Z,21.57
2023-06-06T19:49:16.611Z,21.43
2023-06-06T19:51:43.375Z,21.56
2023-06-06T19:54:10.124Z,21.40
2023-06-06T19:56:36.766Z,21.43
2023-06-06T19:59:03.618Z,21.50
2023-06-06T20:01:30.787Z,21.28
2023-06-06T20:03:57.704Z,21.41
2023-06-06T20:06:25.427Z,21.27
2023-06-06T20:08:52.226Z,21.27
2023-06-06T20:11:18.924Z,21.39
2023-06-06T20:13:45.702Z,21.33
2023-06-06T20:16:12.668Z,21.36
2023-06-06T20:18:39.443Z,21.33
2023-06-06T20:21:08.808Z,21.03
2023-06-06T20:23:35.504Z,20.89
2023-06-06T20:26:04.795Z,20.84
2023-06-06T20:28:33.957Z,20.89
2023-06-06T20:31:03.143Z,20.67
2023-06-06T20:33:29.929Z,20.73
2023-06-06T20:35:58.978Z,20.71
2023-06-06T20:38:25.965Z,20.63
2023-06-06T20:40:53.532Z,20.57
2023-06-06T20:43:24.807Z,20.71
2023-06-06T20:45:52.795Z,20.68
2023-06-06T20:48:20.023Z,20.68
2023-06-06T20:50:47.033Z,20.70
2023-06-06T20:53:13.919Z,20.75
2023-06-06T20:55:42.281Z,20.77
2023-06-06T20:58:09.180Z,20.68
2023-06-06T21:00:36.200Z,20.33
2023-06-06T21:03:03.226Z,20.26
2023-06-06T21:05:30.103Z,20.25
2023-06-06T21:07:56.819Z,20.23
2023-06-06T21:10:24.020Z,20.22
2023-06-06T21:12:50.776Z,20.07
2023-06-06T21:15:17.589Z,19.97
2023-06-06T21:17:44.647Z,19.93
2023-06-06T21:20:12.553Z,20.11
2023-06-06T21:22:39.558Z,20.03
2023-06-06T21:25:06.771Z,19.78
2023-06-06T21:27:33.560Z,19.89
2023-06-06T21:30:01.072Z,19.90
2023-06-06T21:32:28.132Z,19.88
2023-06-06T21:34:54.911Z,19.85
2023-06-06T21:37:25.591Z,19.68
2023-06-06T21:39:52.385Z,19.61
2023-06-06T21:42:19.114Z,19.86
2023-06-06T21:44:45.966Z,19.94
2023-06-06T21:47:12.970Z,19.70
2023-06-06T21:49:43.584Z,19.50
2023-06-06T21:52:11.028Z,19.57
2023-06-06T21:54:37.858Z,19.51
2023-06-06T21:57:04.929Z,19.30
2023-06-06T21:59:31.638Z,19.51
2023-06-06T22:01:59.393Z,19.50
2023-06-06T22:04:26.196Z,19.22
2023-06-06T22:06:52.930Z,19.31
2023-06-06T22:09:19.800Z,19.07
2023-06-06T22:11:46.582Z,19.06
2023-06-06T22:14:13.309Z,19.08
2023-06-06T22:16:40.155Z,19.23
2023-06-06T22:19:06.962Z,19.19
2023-06-06T22:21:33.621Z,19.06
2023-06-06T22:24:00.657Z,19.03
2023-06-06T22:26:28.020Z,19.10
2023-06-06T22:28:55.000Z,19.14
2023-06-06T22:31:21.787Z,19.02
2023-06-06T22:33:48.599Z,18.85
2023-06-06T22:36:16.013Z,18.77
2023-06-06T22:38:42.725Z,18.61
2023-06-06T22:41:09.983Z,18.79
2023-06-06T22:43:36.920Z,18.63
2023-06-06T22:46:03.751Z,18.45
2023-06-06T22:48:30.702Z,18.65
2023-06-06T22:50:57.440Z,18.68
2023-06-06T22:53:25.530Z,18.75
2023-06-06T22:55:52.297Z,18.81
2023-06-06T22:58:19.228Z,18.85
2023-06-06T23:00:46.030Z,18.71
2023-06-06T23:03:12.997Z,18.42
2023-06-06T23:05:39.819Z,18.47
2023-06-06T23:08:07.148Z,18.52
2023-06-06T23:10:33.927Z,18.33
2023-06-06T23:13:00.798Z,18.38
2023-06-06T23:15:28.311Z,18.14
2023-06-06T23:17:55.295Z,18.18
2023-06-06T23:20:22.654Z,18.18
2023-06-06T23:22:49.530Z,18.24
2023-06-06T23:25:16.653Z,18.34
2023-06-06T23:27:43.466Z,18.46
2023-06-06T23:30:11.782Z,18.47
2023-06-06T23:32:38.838Z,18.24
2023-06-06T23:35:06.115Z,18.23
2023-06-06T23:37:32.868Z,18.21
2023-06-06T23:39:59.887Z,18.13
2023-06-06T23:42:26.809Z,18.17
2023-06-06T23:44:55.764Z,18.19
2023-06-06T23:47:22.735Z,18.03
2023-06-06T23:49:49.458Z,18.17
2023-06-06T23:52:16.356Z,18.06
2023-06-06T23:54:43.107Z,18.07
2023-06-06T23:57:09.727Z,18.03
2023-06-06T23:59:36.594Z,17.72
